Date,TemperatureHighF,TemperatureAvgF,TemperatureLowF,DewpointHighF,DewpointAvgF,DewpointLowF,HumidityHigh,HumidityAvg,HumidityLow,PressureMaxIn,PressureMinIn,WindSpeedMaxMPH,WindSpeedAvgMPH,GustSpeedMaxMPH,PrecipitationSumIn
2014-1-1,51,40,31,33,27,20,81,62,43,30.41,30.17,15,1,15,0.00
2014-1-2,45,39,32,44,35,20,94,86,59,30.17,29.68,29,3,29,0.34
2014-1-3,35,27,20,20,10,7,64,51,32,30.50,29.85,32,8,32,0.00
2014-1-4,37,28,17,22,16,9,84,61,46,30.52,30.30,9,1,9,0.00
2014-1-5,41,37,32,40,34,21,95,90,59,30.30,29.80,6,1,6,0.15
2014-1-6,43,32,10,42,20,-5,96,65,37,30.28,29.68,31,12,31,0.08
2014-1-7,28,16,5,7,0,-6,67,50,32,30.53,30.28,15,3,15,0.00
2014-1-8,47,29,14,19,12,6,78,50,31,30.63,30.51,9,1,9,0.00
2014-1-9,50,37,24,26,17,10,72,45,25,30.60,30.48,6,1,6,0.00
2014-1-10,44,41,36,42,36,21,95,86,43,30.50,30.11,12,2,12,0.85
2014-1-11,55,48,42,54,46,39,97,94,70,30.11,29.61,20,4,20,1.57
2014-1-12,58,48,40,39,34,30,71,59,42,30.17,29.77,20,5,20,0.00
2014-1-13,56,46,37,43,37,32,89,71,53,30.16,29.95,21,4,21,0.04
2014-1-14,59,48,39,48,40,28,95,75,42,29.97,29.79,16,3,16,0.13
2014-1-15,55,39,30,37,32,27,92,77,48,29.97,29.85,20,3,20,0.00
2014-1-16,44,34,25,30,24,19,92,68,38,30.07,29.94,20,3,20,0.00
2014-1-17,52,39,29,31,24,18,68,54,37,30.01,29.84,30,7,30,0.00
2014-1-18,40,32,25,23,16,10,64,51,39,30.11,29.92,21,7,21,0.00
2014-1-19,53,40,29,30,23,16,63,50,41,30.01,29.93,20,6,20,0.00
2014-1-20,65,47,31,32,28,24,76,51,27,29.94,29.80,22,5,22,0.00
2014-1-21,50,39,28,33,27,16,83,63,46,29.89,29.56,29,6,29,0.00
2014-1-22,36,28,21,16,8,3,63,45,28,30.10,29.88,15,5,15,0.00
2014-1-23,37,28,22,14,9,1,61,44,32,30.47,30.10,24,7,24,0.00
2014-1-24,30,19,8,3,-2,-6,60,41,25,30.65,30.26,18,4,18,0.00
2014-1-25,40,30,18,20,10,0,59,43,33,30.26,29.72,32,12,32,0.00
2014-1-26,52,40,27,31,22,15,67,50,30,29.97,29.84,22,6,22,0.00
2014-1-27,61,48,35,40,32,16,66,54,43,30.07,29.80,18,8,18,0.00
2014-1-28,34,24,19,17,11,2,89,62,32,30.31,30.07,18,6,18,0.00
2014-1-29,32,23,15,18,13,7,90,67,39,30.40,30.22,13,1,13,0.05
2014-1-30,38,22,7,17,9,3,85,59,36,30.45,30.26,10,1,10,0.00
2014-1-31,55,36,18,26,17,9,80,50,28,30.26,30.15,12,2,12,0.00
2014-2-1,59,44,27,36,26,19,78,52,27,30.26,30.11,12,1,12,0.00
2014-2-2,69,52,39,53,44,34,94,76,56,30.13,29.98,16,4,16,0.00
2014-2-3,66,57,43,61,50,35,95,77,51,30.23,29.83,22,7,22,0.18
2014-2-4,43,39,37,37,35,32,94,83,74,30.38,30.11,15,5,15,0.06
2014-2-5,58,43,37,50,38,28,95,83,49,30.12,29.84,22,6,22,0.09
2014-2-6,42,37,31,29,25,22,76,63,49,30.35,30.12,12,3,12,0.00
2014-2-7,53,40,30,34,30,25,86,68,47,30.37,30.24,12,1,12,0.00
2014-2-8,54,43,36,38,34,30,83,71,52,30.28,30.11,12,1,12,0.00
2014-2-9,58,45,34,41,36,30,86,70,52,30.16,29.95,21,3,21,0.00
2014-2-10,43,38,34,35,34,32,93,86,71,30.26,30.04,12,2,12,0.18
2014-2-11,37,33,28,33,27,21,93,78,66,30.39,30.24,14,3,14,0.00
2014-2-12,28,25,22,24,20,15,98,79,60,30.43,29.87,23,8,23,0.00
2014-2-13,45,35,26,41,30,24,100,86,62,29.88,29.56,26,7,26,0.61
2014-2-14,58,43,30,34,30,24,79,60,36,29.82,29.67,17,5,17,0.34
2014-2-15,46,40,30,37,27,16,92,63,33,30.08,29.56,28,8,28,0.03
2014-2-16,56,41,28,35,27,18,76,58,43,30.16,30.02,18,2,18,0.00
2014-2-17,49,40,32,32,29,25,78,64,47,30.36,30.16,12,2,12,0.00
2014-2-18,64,47,31,40,32,28,91,61,29,30.25,30.07,12,1,12,0.00
2014-2-19,74,61,47,61,49,36,96,68,40,30.08,29.91,21,5,21,0.07
2014-2-20,71,59,47,57,50,42,90,73,57,30.16,29.90,18,2,18,0.00
2014-2-21,63,58,45,60,44,21,93,64,23,30.02,29.77,25,9,25,0.65
2014-2-22,66,51,37,35,28,22,76,43,22,30.20,30.02,12,2,12,0.00
2014-2-23,69,54,38,40,34,27,76,50,28,30.11,29.89,17,4,17,0.00
2014-2-24,62,51,43,38,31,19,68,47,29,30.12,29.89,21,5,21,0.00
2014-2-25,62,46,34,34,26,20,81,48,33,30.10,29.91,12,2,12,0.00
2014-2-26,52,40,30,29,24,19,67,53,37,29.96,29.77,15,3,15,0.00
2014-2-27,55,38,23,23,15,7,77,45,16,30.00,29.80,29,6,29,0.00
2014-2-28,47,36,26,21,16,10,60,44,32,30.30,30.00,15,3,15,0.00
2014-3-1,56,41,30,36,26,18,76,56,43,30.38,30.22,13,2,13,0.00
2014-3-2,72,54,34,50,42,30,93,66,44,30.26,29.89,25,6,25,0.00
2014-3-3,62,43,26,50,38,22,92,82,62,30.27,29.75,27,6,27,0.26
2014-3-4,39,30,20,22,16,9,83,57,40,30.39,30.22,17,3,17,0.00
2014-3-5,54,39,28,34,26,19,78,59,40,30.27,30.12,9,1,9,0.00
2014-3-6,39,35,32,31,24,18,92,65,47,30.39,30.11,22,6,22,0.27
2014-3-7,46,37,33,41,35,31,94,91,79,30.10,29.98,20,2,20,1.95
2014-3-8,68,51,33,49,41,31,95,70,41,30.12,29.98,16,4,16,0.00
2014-3-9,70,59,50,44,38,27,67,46,29,30.09,29.99,17,4,17,0.00
2014-3-10,74,58,40,46,35,27,63,43,28,30.04,29.80,17,4,17,0.00
2014-3-11,78,62,47,48,40,37,70,47,25,29.83,29.66,16,4,16,0.00
2014-3-12,74,60,43,62,49,27,93,70,49,29.70,29.23,37,14,37,0.06
2014-3-13,47,40,32,28,15,8,64,39,21,30.25,29.70,28,9,28,0.00
2014-3-14,62,46,28,30,21,11,57,38,25,30.33,30.07,25,6,25,0.00
2014-3-15,71,58,45,43,34,29,59,41,25,30.08,29.97,22,7,22,0.00
2014-3-16,57,46,40,44,39,31,94,77,40,30.03,29.78,25,5,25,0.81
2014-3-17,39,33,31,37,31,29,94,93,92,30.01,29.82,24,4,24,0.23
2014-3-18,43,36,30,40,34,29,95,92,85,30.20,29.98,12,2,12,0.09
2014-3-19,50,42,38,46,40,37,95,93,85,30.21,30.00,12,1,12,0.01
2014-3-20,66,53,40,43,34,22,95,56,21,30.07,29.97,23,6,23,0.00
2014-3-21,69,55,41,37,30,24,58,40,27,30.18,30.03,25,4,25,0.00
2014-3-22,74,60,48,45,39,32,62,45,34,30.04,29.93,20,4,20,0.00
2014-3-23,60,49,42,45,41,30,92,77,54,30.15,29.91,15,3,15,0.21
2014-3-24,54,42,30,30,26,22,76,54,33,30.29,30.07,13,3,13,0.00
2014-3-25,47,39,32,39,31,24,91,73,47,30.07,29.81,30,5,30,0.12
2014-3-26,49,37,26,26,18,15,79,48,27,30.33,30.07,24,5,24,0.00
2014-3-27,62,44,26,38,25,15,76,49,29,30.45,30.25,20,4,20,0.00
2014-3-28,61,55,48,55,50,38,94,82,63,30.26,30.10,18,4,18,0.00
2014-3-29,65,58,50,62,56,39,96,92,67,30.12,29.60,25,4,25,0.51
2014-3-30,57,48,42,39,32,26,69,54,34,30.04,29.68,37,13,37,0.00
2014-3-31,75,59,44,39,29,24,54,34,21,30.16,30.03,14,4,14,0.00
2014-4-1,82,64,45,46,38,27,69,39,25,30.13,29.98,23,3,23,0.00
2014-4-2,84,70,52,49,42,35,61,38,24,30.08,29.96,20,4,20,0.00
2014-4-3,84,69,54,58,50,36,82,53,26,30.12,29.85,21,5,21,0.02
2014-4-4,78,69,61,62,56,51,75,62,44,29.88,29.67,34,11,34,0.00
2014-4-5,70,61,52,52,41,34,81,51,28,30.05,29.82,17,4,17,0.00
2014-4-6,58,53,45,42,36,31,64,53,44,30.20,30.05,17,5,17,0.00
2014-4-7,53,49,46,50,47,41,95,91,64,30.08,29.67,13,2,13,1.94
2014-4-8,64,57,52,56,47,40,96,73,49,29.73,29.59,18,6,18,0.03
2014-4-9,66,57,48,46,40,32,74,54,30,30.11,29.73,22,6,22,0.00
2014-4-10,73,59,43,45,38,32,73,48,31,30.27,30.11,25,4,25,0.00
2014-4-11,76,64,52,49,44,39,69,50,32,30.19,30.04,32,9,32,0.00
2014-4-12,80,67,51,58,50,45,83,56,38,30.21,30.08,14,2,14,0.00
2014-4-13,80,69,58,60,55,50,83,63,47,30.16,30.03,22,6,22,0.00
2014-4-14,74,66,61,63,59,56,95,81,62,30.04,29.77,20,5,20,0.20
2014-4-15,66,56,37,63,51,25,95,84,58,30.04,29.61,31,9,31,0.73
2014-4-16,55,42,30,33,27,23,83,57,35,30.45,30.03,23,4,23,0.00
2014-4-17,62,46,31,36,32,28,89,60,34,30.57,30.41,18,3,18,0.00
2014-4-18,55,47,40,46,40,32,93,77,63,30.45,30.22,14,3,14,0.47
2014-4-19,53,50,46,51,48,44,94,93,87,30.25,30.13,16,5,16,1.03
2014-4-20,69,58,49,49,42,36,94,60,31,30.31,30.18,27,6,27,0.01
2014-4-21,77,59,43,52,43,37,80,58,37,30.20,29.92,10,1,10,0.00
2014-4-22,76,64,53,59,54,47,90,69,49,29.92,29.70,21,3,21,0.00
2014-4-23,75,64,54,56,40,30,91,47,20,29.98,29.73,20,5,20,0.00
2014-4-24,74,59,42,48,40,31,80,50,33,30.14,29.95,14,2,14,0.00
2014-4-25,77,63,53,64,54,46,94,74,52,29.95,29.69,36,6,36,0.01
2014-4-26,79,66,50,55,48,43,82,56,32,30.03,29.88,23,5,23,0.00
2014-4-27,85,70,51,60,53,46,85,56,33,30.00,29.87,15,2,15,0.00
2014-4-28,71,66,57,64,59,52,93,79,64,29.94,29.83,14,4,14,0.02
2014-4-29,57,55,53,55,53,50,96,94,84,30.03,29.85,14,5,14,0.08
2014-4-30,75,63,54,68,59,53,97,88,69,30.02,29.85,22,3,22,0.00
2014-5-1,76,68,59,62,56,43,92,68,42,29.89,29.76,24,8,24,0.00
2014-5-2,70,60,51,49,45,40,82,59,43,29.95,29.83,17,2,17,0.00
2014-5-3,76,64,50,50,47,43,87,57,35,29.94,29.85,18,3,18,0.00
2014-5-4,86,70,54,57,50,44,77,50,28,30.00,29.85,27,5,27,0.00
2014-5-5,88,72,55,63,55,49,85,57,36,29.98,29.77,21,3,21,0.00
2014-5-6,87,71,53,63,56,50,93,64,36,29.93,29.83,18,3,18,0.00
2014-5-7,84,70,60,67,61,55,92,74,50,30.13,29.92,13,3,13,0.00
2014-5-8,88,75,59,62,57,52,83,55,31,30.17,30.06,23,5,23,0.00
2014-5-9,84,71,63,68,62,56,93,75,53,30.13,30.03,26,4,26,0.13
2014-5-10,79,68,62,68,63,58,94,85,64,30.10,30.01,25,3,25,0.04
2014-5-11,84,71,60,67,62,58,96,75,48,30.15,30.04,9,1,9,0.00
2014-5-12,88,74,58,70,63,56,94,71,45,30.18,30.07,20,2,20,0.00
2014-5-13,88,76,65,72,66,62,92,73,49,30.13,30.04,14,2,14,0.00
2014-5-14,84,76,67,71,64,61,88,70,49,30.12,29.98,14,3,14,0.00
2014-5-15,74,68,58,69,65,55,95,90,73,30.01,29.81,22,3,22,1.17
2014-5-16,70,58,49,54,48,40,89,69,44,30.10,29.87,18,2,18,0.05
2014-5-17,70,57,44,52,45,40,88,66,46,30.19,30.09,17,3,17,0.00
2014-5-18,68,58,50,52,48,45,91,73,52,30.26,30.17,9,1,9,0.00
2014-5-19,73,60,46,55,50,44,95,71,46,30.31,30.20,13,1,13,0.00
2014-5-20,78,66,52,64,57,47,88,73,58,30.28,30.08,22,5,22,0.00
2014-5-21,86,74,60,67,63,58,95,70,47,30.09,29.93,20,5,20,0.00
2014-5-22,87,77,66,68,63,59,81,63,48,30.01,29.89,22,5,22,0.00
2014-5-23,85,74,67,69,63,56,89,70,50,30.08,29.92,23,3,23,0.04
2014-5-24,82,69,56,58,52,47,82,57,35,30.12,30.00,14,2,14,0.00
2014-5-25,81,70,57,64,58,53,88,68,46,30.18,30.09,13,1,13,0.00
2014-5-26,87,72,61,71,64,59,94,78,49,30.18,30.05,15,2,15,0.05
2014-5-27,87,74,66,73,67,63,95,80,53,30.09,29.96,15,3,15,0.01
2014-5-28,90,76,64,71,66,62,95,72,44,30.02,29.92,16,1,16,0.00
2014-5-29,90,73,62,70,65,60,95,78,45,30.08,29.95,17,2,17,0.58
2014-5-30,83,72,65,73,68,64,96,86,63,30.08,30.00,12,1,12,0.06
2014-5-31,80,70,64,68,64,61,95,83,59,30.18,30.08,12,2,12,0.14
2014-6-1,76,67,57,62,59,55,95,78,59,30.31,30.17,9,1,9,0.00
2014-6-2,79,68,56,62,58,53,92,70,49,30.27,30.11,12,2,12,0.00
2014-6-3,84,72,60,70,62,56,90,72,57,30.13,29.95,12,2,12,0.00
2014-6-4,90,78,63,70,66,60,94,69,44,29.96,29.75,16,4,16,0.00
2014-6-5,88,79,71,72,68,65,88,69,52,29.83,29.71,20,5,20,0.00
2014-6-6,85,74,63,67,63,58,84,68,51,29.92,29.82,10,2,10,0.00
2014-6-7,86,74,64,70,66,62,94,76,51,30.00,29.90,12,2,12,0.08
2014-6-8,80,72,67,74,69,64,95,89,79,29.96,29.80,12,2,12,0.35
2014-6-9,87,74,67,73,69,66,96,85,59,29.91,29.81,13,1,13,0.00
2014-6-10,92,78,64,73,68,63,96,76,51,29.93,29.85,16,2,16,0.00
2014-6-11,85,74,66,73,67,63,94,81,62,29.97,29.80,17,2,17,0.08
2014-6-12,82,72,67,71,68,65,95,86,66,29.91,29.80,10,1,10,0.06
2014-6-13,87,74,64,72,66,62,95,79,52,29.88,29.78,21,1,21,0.00
2014-6-14,87,74,63,70,66,61,94,76,52,30.04,29.88,9,1,9,0.00
2014-6-15,88,75,65,70,64,56,93,70,48,30.18,30.03,10,1,10,0.00
2014-6-16,89,76,67,75,69,64,95,79,56,30.17,30.08,12,1,12,0.00
2014-6-17,93,79,66,74,69,64,95,74,48,30.16,30.03,15,2,15,0.00
2014-6-18,95,78,70,74,70,65,94,78,41,30.10,30.03,25,2,25,0.11
2014-6-19,94,77,65,76,69,64,95,78,45,30.10,30.00,25,2,25,0.04
2014-6-20,93,77,66,73,68,64,95,77,44,30.04,29.91,15,1,15,0.00
2014-6-21,89,76,67,76,70,65,95,82,55,29.92,29.78,18,1,18,0.89
2014-6-22,88,77,67,72,67,64,92,74,47,29.94,29.80,10,1,10,0.00
2014-6-23,85,76,70,73,70,68,95,82,62,30.08,29.94,10,1,10,0.00
2014-6-24,82,75,70,74,70,67,94,86,72,30.10,29.98,12,1,12,0.19
2014-6-25,86,76,70,75,71,68,95,85,66,30.00,29.89,16,2,16,0.26
2014-6-26,90,79,71,73,70,67,93,74,50,30.00,29.89,12,1,12,0.00
2014-6-27,86,77,70,74,70,67,89,79,64,30.09,29.95,10,2,10,0.00
2014-6-28,82,75,70,72,70,68,94,85,69,30.19,30.08,13,3,13,0.01
2014-6-29,83,74,70,71,68,64,94,83,63,30.22,30.10,9,1,9,0.00
2014-6-30,87,76,68,73,70,66,95,83,60,30.09,29.92,12,2,12,0.00
2014-7-1,92,80,69,76,72,67,96,80,55,29.97,29.85,14,2,14,0.00
2014-7-2,94,83,73,78,74,70,94,76,54,29.92,29.86,13,2,13,0.00
2014-7-3,93,80,70,77,72,65,94,80,54,29.95,29.81,31,2,31,1.26
2014-7-4,85,74,65,66,60,55,87,63,39,30.19,29.93,14,3,14,0.00
2014-7-5,83,71,58,62,57,52,86,62,43,30.28,30.17,16,1,16,0.00
2014-7-6,86,73,58,68,62,56,93,71,45,30.18,30.01,12,2,12,0.00
2014-7-7,90,79,68,72,68,64,92,73,48,30.04,29.89,18,4,18,0.00
2014-7-8,92,80,69,72,69,66,94,72,45,30.00,29.86,21,6,21,0.00
2014-7-9,88,77,72,73,70,68,87,79,55,30.00,29.91,14,3,14,0.00
2014-7-10,85,73,68,73,69,66,95,88,63,30.09,29.96,13,1,13,0.18
2014-7-11,87,75,66,73,69,65,96,82,57,30.18,30.08,12,1,12,0.00
2014-7-12,91,79,68,74,69,64,95,73,47,30.19,30.09,12,1,12,0.00
2014-7-13,91,78,71,75,70,65,92,78,54,30.11,29.99,17,2,17,0.34
2014-7-14,94,80,70,75,71,67,93,75,50,29.99,29.84,23,4,23,0.00
2014-7-15,90,77,70,76,71,67,94,84,56,29.86,29.72,16,2,16,0.45
2014-7-16,84,72,64,68,62,56,94,73,44,29.93,29.79,12,1,12,0.12
2014-7-17,84,72,59,65,59,54,89,66,43,30.07,29.93,12,2,12,0.00
2014-7-18,70,67,63,68,64,60,95,91,80,30.18,30.07,6,0,6,0.10
2014-7-19,72,67,64,67,64,60,95,89,76,30.16,30.10,7,0,7,0.15
2014-7-20,79,71,64,73,67,62,95,87,73,30.12,30.02,7,1,7,0.02
2014-7-21,77,72,70,73,70,68,96,93,87,30.13,30.04,12,1,12,0.01
2014-7-22,84,75,70,75,71,69,96,88,69,30.16,30.06,7,1,7,0.02
2014-7-23,90,77,68,76,71,66,96,85,59,30.10,29.91,18,1,18,0.07
2014-7-24,89,75,70,75,71,67,95,87,58,29.94,29.82,24,1,24,0.54
2014-7-25,85,75,66,73,69,64,95,83,63,30.05,29.94,9,1,9,0.00
2014-7-26,90,79,68,75,70,66,95,77,53,30.01,29.91,10,1,10,0.00
2014-7-27,90,79,71,75,71,66,92,78,58,29.94,29.74,27,4,27,0.07
2014-7-28,86,76,66,70,64,60,95,70,44,29.89,29.76,28,5,28,0.18
2014-7-29,83,69,59,66,60,57,94,74,47,30.00,29.87,12,1,12,0.12
2014-7-30,84,70,59,66,60,54,89,70,47,30.08,30.00,12,2,12,0.00
2014-7-31,75,69,62,70,66,60,94,89,82,30.13,30.05,6,0,6,0.24
2014-8-1,67,64,63,66,63,61,95,95,93,30.13,30.06,15,4,15,2.17
2014-8-2,72,67,64,68,64,62,96,92,83,30.14,30.06,12,2,12,0.01
2014-8-3,86,74,62,71,66,61,96,80,49,30.11,30.00,12,1,12,0.00
2014-8-4,86,75,64,72,67,63,95,78,55,30.09,30.00,7,1,7,0.00
2014-8-5,88,76,66,74,69,64,95,80,58,30.06,29.96,12,1,12,0.13
2014-8-6,87,76,66,72,68,64,95,79,54,30.00,29.90,12,1,12,0.01
2014-8-7,88,76,66,71,67,64,95,76,49,30.01,29.91,10,1,10,0.00
2014-8-8,78,72,66,74,69,64,95,91,80,30.11,30.00,10,0,10,0.13
2014-8-9,80,71,64,74,69,63,95,92,78,30.09,29.99,15,2,15,0.01
2014-8-10,69,67,64,68,65,62,96,95,95,30.09,30.02,10,2,10,0.15
2014-8-11,82,73,69,75,71,68,96,93,79,30.06,29.92,9,1,9,0.70
2014-8-12,85,76,70,78,72,67,96,90,72,29.93,29.75,20,1,20,0.65
2014-8-13,82,73,65,69,64,60,95,76,53,30.00,29.82,14,2,14,0.01
2014-8-14,83,70,57,68,61,55,95,74,48,30.06,29.95,13,1,13,0.00
2014-8-15,86,74,62,70,65,60,94,75,52,30.03,29.93,12,1,12,0.00
2014-8-16,87,75,64,71,67,62,95,77,51,30.03,29.95,12,1,12,0.00
2014-8-17,89,78,68,75,70,66,94,78,54,30.00,29.91,6,0,6,0.00
2014-8-18,88,78,71,77,72,69,95,84,65,29.93,29.74,15,2,15,0.00
2014-8-19,88,78,68,76,70,66,95,79,55,29.88,29.78,12,1,12,0.00
2014-8-20,90,78,69,76,71,67,95,80,58,30.02,29.87,12,1,12,0.00
2014-8-21,92,80,68,77,70,64,92,72,50,30.09,29.95,7,0,7,0.00
2014-8-22,94,81,71,78,73,69,95,79,52,30.04,29.91,12,1,12,0.02
2014-8-23,90,78,72,78,73,70,95,84,62,29.96,29.86,18,1,18,0.20
2014-8-24,76,72,69,72,69,66,95,91,78,30.10,29.92,13,2,13,0.86
2014-8-25,79,71,62,66,63,59,95,77,57,30.13,30.06,16,3,16,0.00
2014-8-26,80,69,59,65,62,57,95,79,56,30.17,30.07,14,2,14,0.00
2014-8-27,86,72,59,68,62,57,95,74,41,30.11,29.97,15,1,15,0.00
2014-8-28,92,78,64,75,68,60,91,72,52,30.02,29.93,9,0,9,0.00
2014-8-29,86,76,70,75,71,68,95,84,67,30.13,30.00,14,2,14,0.00
2014-8-30,90,78,68,76,71,67,95,81,56,30.18,30.06,12,1,12,0.00
2014-8-31,90,80,72,76,72,68,92,78,59,30.14,30.01,12,2,12,0.00
2014-9-1,93,81,71,76,72,69,95,76,50,30.08,29.98,12,1,12,0.00
2014-9-2,94,82,70,78,72,67,94,75,50,30.05,29.90,12,2,12,0.00
2014-9-3,90,78,66,74,69,64,95,76,54,30.10,29.95,16,1,15,1.13
2014-9-4,88,75,70,78,71,68,95,89,65,30.16,30.06,18,1,18,0.25
2014-9-5,90,77,68,76,71,66,95,84,58,30.20,30.05,10,0,10,0.01
2014-9-6,90,77,68,76,71,67,95,84,56,30.08,29.91,13,1,13,0.01
2014-9-7,84,75,68,72,69,67,95,83,65,30.06,29.95,17,4,17,0.00
2014-9-8,73,68,64,68,65,62,95,90,81,30.11,30.04,17,5,17,0.14
2014-9-9,77,70,64,69,66,62,95,88,75,30.14,30.06,14,2,14,0.00
2014-9-10,80,71,65,70,67,64,96,87,70,30.12,30.00,12,1,12,0.00
2014-9-11,88,74,67,76,70,64,95,87,64,30.04,29.92,24,3,24,0.01
2014-9-12,88,77,69,75,71,68,95,84,61,30.05,29.95,13,2,13,0.14
2014-9-13,84,72,62,74,68,60,95,87,69,30.17,30.00,18,2,18,1.87
2014-9-14,69,64,60,63,60,58,95,88,74,30.27,30.17,10,1,10,0.08
2014-9-15,73,68,64,68,64,62,95,88,80,30.22,30.10,5,0,5,0.07
2014-9-16,85,73,66,74,68,64,96,85,62,30.11,29.90,31,1,31,0.58
2014-9-17,75,67,62,67,63,60,95,89,74,29.99,29.91,12,2,12,0.01
2014-9-18,78,68,60,68,64,58,96,87,62,30.03,29.92,9,0,9,0.00
2014-9-19,78,69,64,67,64,60,95,83,56,30.22,30.02,13,1,13,0.00
2014-9-20,80,68,61,64,61,59,95,80,55,30.22,30.01,12,2,12,0.00
2014-9-21,85,71,58,70,64,56,95,80,57,30.03,29.80,20,3,20,0.00
2014-9-22,75,68,59,65,57,52,84,70,52,30.16,29.88,12,2,12,0.00
2014-9-23,61,58,54,54,53,51,94,83,76,30.32,30.15,13,2,13,0.06
2014-9-24,66,58,51,59,54,49,95,89,74,30.38,30.26,18,5,18,0.05
2014-9-25,72,64,60,65,61,59,95,91,79,30.27,30.17,13,4,13,0.03
2014-9-26,70,65,62,64,62,60,95,90,80,30.23,30.16,17,2,17,0.01
2014-9-27,76,65,58,62,59,55,95,81,57,30.24,30.14,13,2,13,0.00
2014-9-28,75,65,56,66,60,55,95,86,67,30.20,30.08,7,0,7,0.00
2014-9-29,69,65,62,65,63,61,95,93,86,30.08,29.95,5,0,5,0.12
2014-9-30,82,69,59,69,63,58,96,83,51,29.96,29.83,10,1,10,0.00
2014-10-1,81,69,58,68,62,56,95,80,54,30.02,29.89,7,0,7,0.00
2014-10-2,83,70,58,69,63,57,95,81,54,30.11,30.00,13,1,13,0.00
2014-10-3,73,68,61,70,65,59,94,91,83,30.02,29.73,14,2,14,0.24
2014-10-4,68,59,45,66,47,35,95,67,37,29.92,29.72,21,4,21,0.01
2014-10-5,64,52,38,45,40,35,92,66,41,30.04,29.91,17,2,17,0.00
2014-10-6,74,60,46,55,48,41,87,68,48,30.07,29.97,25,4,25,0.00
2014-10-7,76,65,56,62,55,50,90,71,58,30.12,29.95,20,3,20,0.00
2014-10-8,83,70,62,67,58,53,92,69,37,30.06,29.94,21,5,21,0.02
2014-10-9,80,65,51,61,55,49,94,73,47,30.17,30.05,15,2,15,0.00
2014-10-10,83,70,58,70,64,56,95,82,61,30.09,29.94,21,4,21,0.00
2014-10-11,83,69,61,71,66,59,95,89,65,30.04,29.92,14,2,14,0.35
2014-10-12,67,57,54,66,55,53,95,94,91,30.25,30.05,17,2,17,0.13
2014-10-13,64,60,56,63,59,55,96,95,95,30.26,30.10,9,1,9,0.22
2014-10-14,78,71,62,71,68,60,96,90,75,30.11,29.76,31,5,31,0.51
2014-10-15,71,62,56,61,56,50,94,80,55,29.85,29.77,20,5,20,0.33
2014-10-16,69,59,52,56,52,49,94,78,57,29.89,29.76,17,3,17,0.00
2014-10-17,73,60,46,58,52,44,94,77,55,29.94,29.80,16,3,16,0.00
2014-10-18,72,62,54,57,52,45,94,70,47,29.98,29.77,15,5,15,0.00
2014-10-19,69,56,46,49,45,42,88,68,41,30.14,29.98,13,2,13,0.00
2014-10-20,70,56,42,55,49,40,94,78,55,30.14,29.97,21,4,21,0.01
2014-10-21,72,59,50,55,49,41,93,71,44,30.00,29.85,20,4,20,0.00
2014-10-22,65,52,43,46,41,38,86,67,47,30.11,29.99,20,5,20,0.00
2014-10-23,69,54,42,47,42,38,89,68,40,30.11,29.99,15,2,15,0.00
2014-10-24,70,54,41,50,45,39,93,72,41,30.09,29.98,12,1,12,0.00
2014-10-25,74,58,43,50,44,40,90,64,35,30.06,29.92,13,2,13,0.00
2014-10-26,81,68,57,58,50,43,81,56,27,29.97,29.86,20,5,20,0.00
2014-10-27,80,63,47,54,48,43,93,62,34,30.12,29.96,12,1,12,0.00
2014-10-28,82,65,48,63,54,45,94,71,44,30.14,30.01,21,4,21,0.00
2014-10-29,75,64,57,62,56,46,88,77,60,30.01,29.90,12,2,12,0.20
2014-10-30,66,54,44,48,44,38,91,70,42,30.08,29.97,12,1,12,0.01
2014-10-31,58,48,42,49,43,37,93,82,68,29.99,29.79,12,1,12,0.38
2014-11-1,51,44,38,44,38,32,93,80,59,30.09,29.74,28,8,28,0.32
2014-11-2,55,43,34,32,27,23,74,55,31,30.38,30.09,21,5,21,0.00
2014-11-3,65,48,31,35,30,26,84,54,25,30.48,30.35,13,2,13,0.00
2014-11-4,67,54,40,42,37,33,78,56,36,30.36,30.22,16,2,16,0.00
2014-11-5,65,57,48,54,46,38,86,68,52,30.29,30.13,12,2,12,0.00
2014-11-6,69,60,48,61,51,32,93,75,43,30.12,29.71,33,10,33,0.04
2014-11-7,60,50,38,39,36,33,82,60,42,30.07,29.90,20,4,20,0.00
2014-11-8,58,45,31,42,36,29,93,74,52,30.12,29.97,17,2,17,0.00
2014-11-9,65,50,38,44,40,36,92,72,43,30.05,29.93,7,0,7,0.00
2014-11-10,67,50,36,49,41,34,93,74,44,30.14,30.03,13,1,13,0.00
2014-11-11,73,55,39,58,46,36,93,76,49,30.09,29.92,12,1,12,0.00
2014-11-12,75,60,45,58,50,42,92,71,52,30.02,29.92,15,2,15,0.00
2014-11-13,57,51,41,45,42,35,80,69,61,30.06,29.96,12,3,12,0.00
2014-11-14,43,35,27,36,24,16,92,64,40,30.38,30.06,15,5,15,0.02
2014-11-15,45,32,21,23,18,14,76,58,38,30.50,30.37,10,1,10,0.00
2014-11-16,54,44,30,36,30,23,83,59,41,30.40,30.04,10,1,10,0.00
2014-11-17,48,44,34,47,40,26,94,85,61,30.05,29.64,14,2,14,0.71
2014-11-18,36,30,22,26,15,9,76,55,38,30.35,29.95,24,4,24,0.00
2014-11-19,42,32,21,21,15,9,66,51,36,30.43,30.24,16,2,16,0.00
2014-11-20,58,44,32,35,27,20,66,52,40,30.24,30.06,22,5,22,0.00
2014-11-21,56,44,31,26,21,15,62,42,21,30.54,30.18,13,2,13,0.00
2014-11-22,55,40,26,34,22,17,72,52,32,30.59,30.34,12,1,12,0.00
2014-11-23,60,45,41,59,40,30,95,84,62,30.34,29.73,27,2,27,1.58
2014-11-24,72,63,55,62,57,53,95,81,59,29.88,29.71,25,10,25,0.00
2014-11-25,64,56,47,61,47,38,93,75,48,30.08,29.86,18,1,18,0.09
2014-11-26,53,45,42,44,42,40,93,88,69,30.05,29.94,14,2,14,1.13
2014-11-27,49,42,34,42,34,24,94,75,50,30.33,29.96,21,5,21,0.01
2014-11-28,46,36,28,27,24,21,76,60,40,30.41,30.29,12,2,12,0.00
2014-11-29,56,42,32,34,29,23,78,61,40,30.33,30.21,20,3,20,0.00
2014-11-30,66,52,36,52,42,31,85,70,59,30.31,30.21,20,5,20,0.00
2014-12-1,73,59,46,55,48,41,84,70,52,30.37,30.25,15,3,15,0.00
2014-12-2,58,46,41,52,42,39,93,87,80,30.43,30.27,20,3,20,0.00
2014-12-3,61,50,41,56,47,39,94,91,82,30.36,30.18,14,2,14,0.00
2014-12-4,56,50,43,48,44,41,94,81,61,30.41,30.26,9,1,9,0.00
2014-12-5,48,46,42,44,41,37,93,85,74,30.49,30.36,6,1,6,0.03
2014-12-6,51,47,44,49,45,41,94,93,81,30.36,30.05,16,3,16,0.11
2014-12-7,53,46,40,43,32,22,82,58,32,30.46,30.18,20,6,20,0.00
2014-12-8,41,38,36,37,29,20,93,71,50,30.47,30.20,16,5,16,0.02
2014-12-9,52,42,36,44,36,31,94,79,54,30.20,29.97,16,3,16,0.00
2014-12-10,50,41,34,33,30,25,77,65,48,30.09,30.02,20,5,20,0.00
2014-12-11,51,38,28,29,23,18,82,57,34,30.20,30.02,12,2,12,0.00
2014-12-12,60,46,31,26,21,16,60,39,26,30.29,30.17,13,3,13,0.00
2014-12-13,66,50,35,29,23,19,60,36,20,30.19,30.06,12,1,12,0.00
2014-12-14,63,47,32,36,29,22,70,50,34,30.08,30.00,7,1,7,0.00
2014-12-15,59,43,30,40,34,26,91,71,47,30.16,30.06,9,0,9,0.00
2014-12-16,55,47,39,51,43,35,93,85,68,30.07,29.86,16,2,16,0.10
2014-12-17,60,48,40,41,37,29,84,66,42,30.15,30.05,12,2,12,0.00
2014-12-18,54,43,34,36,31,26,86,64,43,30.20,30.07,10,1,10,0.00
2014-12-19,56,44,33,37,32,27,83,65,46,30.21,30.11,9,1,9,0.00
2014-12-20,45,42,38,37,34,31,85,75,66,30.28,30.19,6,0,6,0.00
2014-12-21,47,44,41,40,39,36,94,83,77,30.31,30.21,7,1,7,0.00
2014-12-22,44,38,37,39,36,35,94,92,81,30.21,30.04,15,5,15,0.08
2014-12-23,44,41,37,42,39,35,99,94,94,30.10,29.93,10,1,10,0.14
2014-12-24,53,48,44,52,46,42,95,95,94,29.93,29.66,13,2,13,1.18
2014-12-25,54,48,36,52,38,31,95,70,47,30.28,29.69,14,5,14,0.00
2014-12-26,59,44,31,41,35,28,92,72,45,30.39,30.25,12,1,12,0.00
2014-12-27,63,49,37,43,38,33,91,67,40,30.33,30.18,16,2,16,0.00
2014-12-28,62,56,51,56,50,40,94,83,65,30.18,29.96,22,5,22,0.01
2014-12-29,55,51,40,53,50,38,94,94,93,30.17,30.02,16,2,16,0.37
2014-12-30,40,38,32,38,35,30,94,90,83,30.47,30.16,14,4,14,0.13
2014-12-31,46,36,31,36,30,20,94,78,50,30.50,30.37,13,1,13,0.00
2015-1-1,52,39,25,36,30,19,92,69,49,30.39,30.23,12,2,12,0.00
2015-1-2,53,47,40,43,39,34,86,74,65,30.36,30.23,5,0,5,0.00